Time;durP1;ratioP1;P1;durP2;ratioP2;P2;SDS_P1;SDS_P2;PMS_P1;PMS_P2;Temp;Humidity;BMP_temperature;BMP_pressure;BME280_temperature;BME280_humidity;BME280_pressure;Samples;Min_cycle;Max_cycle;Signal;HPM_P1;HPM_P2
2022/06/29 00:01:30;;;;;;;11.40;4.30;;;;;;;14.78;100.00;100267.20;104963;1274;59924;-70
2022/06/29 00:04:18;;;;;;;10.90;4.20;;;;;;;14.76;99.95;100260.27;105137;1274;59641;-70
2022/06/29 00:07:06;;;;;;;8.70;3.60;;;;;;;14.75;100.00;100256.06;105253;1273;72730;-69
2022/06/29 00:09:54;;;;;;;10.50;4.20;;;;;;;14.74;100.00;100256.46;105245;1271;69098;-70
2022/06/29 00:12:45;;;;;;;10.50;4.10;;;;;;;14.72;100.00;100267.74;105052;1274;72261;-70
2022/06/29 00:15:33;;;;;;;9.80;4.40;;;;;;;14.72;100.00;100277.45;104899;1274;59797;-71
2022/06/29 00:18:20;;;;;;;8.00;4.10;;;;;;;14.71;100.00;100280.01;104971;1274;59525;-71
2022/06/29 00:21:08;;;;;;;11.20;4.20;;;;;;;14.70;100.00;100288.27;105204;1274;74009;-70
2022/06/29 00:23:56;;;;;;;11.60;4.90;;;;;;;14.70;100.00;100289.96;104925;1273;69370;-68
2022/06/29 00:26:44;;;;;;;11.90;5.00;;;;;;;14.70;100.00;100299.17;104920;1272;72655;-70
2022/06/29 00:29:32;;;;;;;12.90;5.20;;;;;;;14.71;100.00;100299.12;105018;1274;59682;-69
2022/06/29 00:32:20;;;;;;;12.40;4.80;;;;;;;14.70;100.00;100299.31;104915;1274;61296;-71
2022/06/29 00:35:09;;;;;;;12.40;5.00;;;;;;;14.71;100.00;100298.05;104934;1274;71586;-72
2022/06/29 00:37:57;;;;;;;9.40;4.20;;;;;;;14.70;100.00;100297.37;104888;1274;68367;-71
2022/06/29 00:40:45;;;;;;;12.90;4.70;;;;;;;14.69;100.00;100290.71;104921;1274;73303;-68
2022/06/29 00:43:41;;;;;;;11.20;4.70;;;;;;;14.68;100.00;100288.35;104882;1274;61073;-71
2022/06/29 00:46:29;;;;;;;11.90;4.60;;;;;;;14.66;100.00;100290.13;104993;1274;62016;-65
2022/06/29 00:49:20;;;;;;;9.50;4.40;;;;;;;14.63;100.00;100284.45;104898;1274;71706;-69
2022/06/29 00:52:12;;;;;;;10.10;4.60;;;;;;;14.60;100.00;100286.68;104942;1273;66870;-66
2022/06/29 00:55:10;;;;;;;13.00;4.90;;;;;;;14.58;100.00;100286.67;105011;1274;73422;-68
2022/06/29 00:58:03;;;;;;;9.60;4.50;;;;;;;14.56;100.00;100287.71;104799;1274;60776;-67
2022/06/29 01:00:51;;;;;;;14.60;5.10;;;;;;;14.55;100.00;100286.27;104962;1272;60475;-70
2022/06/29 01:03:38;;;;;;;9.40;4.20;;;;;;;14.55;100.00;100290.55;105047;1274;74518;-70
2022/06/29 01:06:26;;;;;;;13.40;4.60;;;;;;;14.54;100.00;100288.45;105035;1274;68610;-69
2022/06/29 01:09:15;;;;;;;13.40;4.80;;;;;;;14.55;100.00;100291.92;104758;1274;74192;-68
2022/06/29 01:12:04;;;;;;;11.80;5.30;;;;;;;14.56;100.00;100288.48;104729;1274;59855;-70
2022/06/29 01:14:56;;;;;;;9.10;5.10;;;;;;;14.57;100.00;100285.30;104756;1273;59763;-69
2022/06/29 01:17:44;;;;;;;12.50;5.30;;;;;;;14.58;100.00;100283.45;104859;1274;73589;-67
2022/06/29 01:20:32;;;;;;;11.40;4.90;;;;;;;14.58;100.00;100285.08;104764;1274;69644;-69
2022/06/29 01:23:20;;;;;;;14.80;5.60;;;;;;;14.59;100.00;100287.67;104796;1274;73413;-69
2022/06/29 01:26:11;;;;;;;9.40;5.00;;;;;;;14.60;100.00;100284.13;105017;1274;59772;-69
2022/06/29 01:28:59;;;;;;;13.00;5.10;;;;;;;14.62;100.00;100281.85;104841;1274;62070;-70
2022/06/29 01:31:46;;;;;;;11.40;5.20;;;;;;;14.64;100.00;100275.94;105156;1274;74322;-70
2022/06/29 01:34:36;;;;;;;12.80;5.40;;;;;;;14.69;100.00;100265.73;105003;1273;69430;-68
2022/06/29 01:37:24;;;;;;;10.30;4.50;;;;;;;14.72;100.00;100261.48;104924;1274;74327;-69
2022/06/29 01:40:12;;;;;;;13.40;5.00;;;;;;;14.75;100.00;100260.65;104822;1274;59758;-70
2022/06/29 01:43:00;;;;;;;11.10;5.50;;;;;;;14.78;100.00;100265.36;104990;1274;60011;-71
2022/06/29 01:45:48;;;;;;;12.70;4.90;;;;;;;14.82;100.00;100266.98;104815;1274;73842;-70
2022/06/29 01:48:36;;;;;;;12.90;5.90;;;;;;;14.86;100.00;100269.31;104838;1274;68346;-69
2022/06/29 01:51:24;;;;;;;12.10;5.20;;;;;;;14.88;100.00;100265.56;104936;1274;72311;-71
2022/06/29 01:54:13;;;;;;;12.30;5.60;;;;;;;14.91;100.00;100264.90;104829;1274;59691;-69
2022/06/29 01:57:00;;;;;;;10.70;5.50;;;;;;;14.95;100.00;100262.26;105177;1274;60334;-69
2022/06/29 01:59:48;;;;;;;10.30;4.80;;;;;;;14.97;100.00;100252.17;105085;1274;73506;-70
2022/06/29 02:02:36;;;;;;;10.80;4.90;;;;;;;15.00;100.00;100250.37;104834;1274;68701;-70
2022/06/29 02:05:24;;;;;;;10.10;4.90;;;;;;;15.01;100.00;100250.98;104725;1273;74198;-72
2022/06/29 02:08:12;;;;;;;11.80;5.10;;;;;;;15.03;100.00;100253.69;104972;1273;59723;-70
2022/06/29 02:11:00;;;;;;;10.90;5.30;;;;;;;15.04;100.00;100248.95;104823;1274;59669;-71
2022/06/29 02:13:49;;;;;;;10.30;4.70;;;;;;;15.07;100.00;100243.62;104818;1274;71898;-69
2022/06/29 02:16:37;;;;;;;12.00;5.30;;;;;;;15.10;100.00;100240.09;105149;1274;65950;-71
2022/06/29 02:19:25;;;;;;;12.10;5.20;;;;;;;15.12;100.00;100239.24;105050;1274;72540;-69
2022/06/29 02:22:13;;;;;;;9.80;5.20;;;;;;;15.10;100.00;100235.79;104998;1272;61565;-69
2022/06/29 02:25:09;;;;;;;9.00;4.40;;;;;;;15.10;100.00;100233.51;104876;1274;60958;-71
2022/06/29 02:27:57;;;;;;;13.80;5.90;;;;;;;15.06;100.00;100236.55;104898;1274;73606;-71
2022/06/29 02:36:58;;;;;;;11.30;5.80;;;;;;;14.96;100.00;100238.02;104995;1274;59677;-73
2022/06/29 02:39:45;;;;;;;11.60;6.00;;;;;;;14.92;100.00;100229.85;105196;1274;61550;-71
2022/06/29 02:42:34;;;;;;;11.30;5.40;;;;;;;14.88;100.00;100224.69;104919;1274;72964;-71
2022/06/29 02:45:41;;;;;;;11.60;5.50;;;;;;;14.84;100.00;100214.54;105169;1274;67090;-72
2022/06/29 02:48:29;;;;;;;12.00;5.60;;;;;;;14.81;100.00;100206.73;104898;1274;74178;-72
2022/06/29 02:51:17;;;;;;;12.30;5.80;;;;;;;14.78;100.00;100212.55;104899;1274;61314;-70
2022/06/29 02:54:05;;;;;;;10.50;5.20;;;;;;;14.74;100.00;100211.14;104767;1274;60105;-69
2022/06/29 02:56:53;;;;;;;10.30;5.40;;;;;;;14.70;100.00;100204.50;104891;1274;74929;-71
2022/06/29 02:59:41;;;;;;;9.90;5.30;;;;;;;14.68;100.00;100209.18;104952;1274;68391;-71
2022/06/29 03:02:29;;;;;;;12.80;5.30;;;;;;;14.66;100.00;100218.54;105020;1272;74129;-72
2022/06/29 03:05:17;;;;;;;11.20;5.70;;;;;;;14.63;100.00;100216.75;104854;1274;59651;-74
2022/06/29 03:08:05;;;;;;;10.70;5.40;;;;;;;14.62;100.00;100218.65;104821;1273;59627;-72
2022/06/29 03:10:53;;;;;;;12.60;5.70;;;;;;;14.62;100.00;100222.94;104876;1274;74130;-73
2022/06/29 03:13:41;;;;;;;12.00;5.70;;;;;;;14.62;100.00;100219.70;105000;1274;68704;-69
2022/06/29 03:16:30;;;;;;;11.10;5.50;;;;;;;14.63;100.00;100221.40;105073;1274;72036;-70
2022/06/29 03:19:19;;;;;;;11.70;5.50;;;;;;;14.63;100.00;100223.17;104932;1274;59667;-71
2022/06/29 03:22:07;;;;;;;11.30;5.40;;;;;;;14.65;100.00;100224.30;104753;1274;59667;-72
2022/06/29 03:24:55;;;;;;;10.50;5.40;;;;;;;14.67;100.00;100227.14;104842;1272;75021;-73
2022/06/29 03:27:43;;;;;;;11.70;5.40;;;;;;;14.70;100.00;100232.27;104919;1274;69588;-71
2022/06/29 03:30:31;;;;;;;13.70;5.30;;;;;;;14.70;100.00;100227.75;105064;1274;74776;-70
2022/06/29 03:33:19;;;;;;;11.10;6.00;;;;;;;14.72;100.00;100224.71;105507;1274;59730;-70
2022/06/29 03:36:08;;;;;;;12.20;5.80;;;;;;;14.77;100.00;100221.58;105168;1274;59765;-72
2022/06/29 03:38:56;;;;;;;14.00;6.00;;;;;;;14.81;100.00;100216.33;104766;1274;74700;-73
2022/06/29 03:41:44;;;;;;;14.70;6.60;;;;;;;14.87;100.00;100209.20;104875;1274;69607;-71
2022/06/29 03:44:31;;;;;;;10.40;5.60;;;;;;;14.90;100.00;100213.02;105179;1273;74126;-71
2022/06/29 03:47:19;;;;;;;10.70;5.30;;;;;;;14.94;100.00;100216.82;104882;1274;59758;-70
2022/06/29 03:50:09;;;;;;;8.90;4.80;;;;;;;14.97;100.00;100220.18;104771;1274;60932;-72
2022/06/29 03:52:57;;;;;;;10.30;5.30;;;;;;;15.02;100.00;100225.17;105141;1274;73877;-74
2022/06/29 03:55:44;;;;;;;9.30;5.10;;;;;;;15.09;100.00;100235.60;104844;1274;69382;-72
2022/06/29 03:58:33;;;;;;;10.80;5.00;;;;;;;15.17;100.00;100238.42;105004;1274;73661;-69
2022/06/29 04:01:21;;;;;;;10.50;4.90;;;;;;;15.26;100.00;100244.73;105018;1273;59741;-72
2022/06/29 04:04:08;;;;;;;13.50;5.40;;;;;;;15.39;100.00;100249.77;104987;1274;60259;-72
2022/06/29 04:06:56;;;;;;;10.20;4.90;;;;;;;15.49;99.95;100248.46;104940;1274;73755;-74
2022/06/29 04:09:44;;;;;;;9.30;5.00;;;;;;;15.62;99.43;100241.48;105844;1274;67889;-72
2022/06/29 04:12:35;;;;;;;11.30;4.80;;;;;;;15.76;98.82;100243.31;105312;1273;73221;-70
2022/06/29 04:15:24;;;;;;;10.50;4.60;;;;;;;15.90;97.65;100240.23;105026;1273;59682;-68
2022/06/29 04:18:12;;;;;;;9.90;4.60;;;;;;;16.00;96.97;100238.34;104872;1274;60401;-71
2022/06/29 04:21:06;;;;;;;11.60;4.60;;;;;;;16.08;96.49;100232.77;104870;1274;73490;-71
2022/06/29 04:23:53;;;;;;;9.50;4.30;;;;;;;16.12;95.90;100233.09;105133;1273;70047;-70
2022/06/29 04:26:43;;;;;;;13.00;5.00;;;;;;;16.09;95.58;100231.77;105158;1273;72310;-71
2022/06/29 04:29:30;;;;;;;11.30;4.60;;;;;;;16.08;95.78;100229.66;104715;1273;59762;-72
2022/06/29 04:32:18;;;;;;;13.40;5.40;;;;;;;16.06;95.52;100226.39;104930;1274;59590;-70
2022/06/29 04:35:09;;;;;;;11.40;5.20;;;;;;;16.04;95.94;100228.73;104883;1274;74672;-70
2022/06/29 04:37:56;;;;;;;8.90;4.40;;;;;;;16.04;96.00;100226.67;104758;1273;69542;-69
2022/06/29 04:40:46;;;;;;;10.30;5.50;;;;;;;16.06;96.29;100224.36;104755;1273;74318;-69
2022/06/29 04:43:34;;;;;;;10.10;5.00;;;;;;;16.06;96.02;100224.20;104834;1274;59551;-71
2022/06/29 04:46:24;;;;;;;9.70;4.70;;;;;;;16.08;96.01;100222.18;104732;1274;62091;-71
2022/06/29 04:49:12;;;;;;;10.80;4.80;;;;;;;16.12;96.00;100219.41;105014;1274;72889;-70
2022/06/29 04:52:00;;;;;;;9.60;4.60;;;;;;;16.21;95.91;100221.84;104947;1274;68220;-68
2022/06/29 04:54:50;;;;;;;8.30;4.00;;;;;;;16.32;95.07;100222.30;104623;1273;74342;-72
2022/06/29 04:57:39;;;;;;;9.40;4.30;;;;;;;16.45;94.77;100219.60;104764;1274;59684;-71
2022/06/29 05:00:27;;;;;;;9.60;4.20;;;;;;;16.66;94.23;100222.40;104684;1274;60247;-71
2022/06/29 05:03:17;;;;;;;8.00;3.50;;;;;;;16.88;92.90;100211.16;105021;1274;73474;-71
2022/06/29 05:06:06;;;;;;;9.80;4.30;;;;;;;17.03;91.60;100205.18;105291;1273;68043;-72
2022/06/29 05:08:54;;;;;;;9.50;4.00;;;;;;;17.18;90.92;100204.08;104773;1274;72586;-72
2022/06/29 05:11:42;;;;;;;9.40;4.10;;;;;;;17.25;89.60;100208.16;104821;1274;59659;-73
2022/06/29 05:14:30;;;;;;;9.70;4.40;;;;;;;17.41;89.61;100210.73;104800;1274;59527;-74
2022/06/29 05:17:18;;;;;;;9.70;3.40;;;;;;;18.00;87.88;100198.25;104996;1274;72804;-72
2022/06/29 05:20:08;;;;;;;11.30;3.40;;;;;;;18.78;84.93;100195.14;104600;1272;556060;-71
2022/06/29 05:22:56;;;;;;;8.30;3.30;;;;;;;19.13;81.42;100189.53;104772;1274;74948;-76
2022/06/29 05:25:45;;;;;;;8.30;3.30;;;;;;;19.41;79.49;100194.09;105094;1273;59760;-76
2022/06/29 05:28:33;;;;;;;8.80;3.10;;;;;;;20.17;76.98;100193.66;104842;1274;61305;-77
2022/06/29 05:31:23;;;;;;;8.70;2.90;;;;;;;21.13;72.11;100191.95;104880;1274;73663;-74
2022/06/29 05:34:12;;;;;;;7.20;2.50;;;;;;;22.06;68.62;100185.91;105092;1274;67958;-75
2022/06/29 05:36:59;;;;;;;7.00;2.40;;;;;;;23.01;65.33;100186.46;104827;1274;72893;-77
2022/06/29 05:39:47;;;;;;;7.90;2.50;;;;;;;24.24;59.24;100185.39;104889;1274;59580;-76
2022/06/29 05:42:35;;;;;;;6.60;2.10;;;;;;;24.03;59.11;100183.50;104816;1274;59544;-73
2022/06/29 05:45:23;;;;;;;6.50;2.30;;;;;;;23.73;59.53;100189.48;104803;1274;73602;-73
2022/06/29 05:48:11;;;;;;;7.70;2.50;;;;;;;23.60;59.83;100192.23;104954;1274;67114;-76
2022/06/29 05:50:59;;;;;;;8.30;2.50;;;;;;;24.08;58.62;100189.70;105124;1274;74087;-77
2022/06/29 05:53:50;;;;;;;9.50;2.80;;;;;;;24.01;58.43;100197.63;104727;1274;59758;-77
2022/06/29 05:56:38;;;;;;;9.70;2.60;;;;;;;24.27;57.54;100196.32;105088;1274;61634;-79
2022/06/29 05:59:27;;;;;;;6.30;2.40;;;;;;;24.60;56.84;100191.89;104889;1274;73905;-77
2022/06/29 06:02:15;;;;;;;7.20;2.60;;;;;;;24.67;56.38;100190.73;104918;1274;68823;-77
2022/06/29 06:05:03;;;;;;;7.40;2.50;;;;;;;25.00;55.31;100194.36;105091;1274;73176;-79
2022/06/29 06:07:52;;;;;;;8.20;3.10;;;;;;;24.54;55.20;100198.83;105047;1274;59943;-77
2022/06/29 06:10:41;;;;;;;7.80;3.00;;;;;;;24.02;56.49;100198.14;104856;1274;60988;-75
2022/06/29 06:13:29;;;;;;;9.40;2.90;;;;;;;23.97;57.60;100197.25;104716;1274;73773;-79
2022/06/29 06:16:17;;;;;;;7.10;3.00;;;;;;;24.07;57.63;100207.48;105095;1274;67766;-77
2022/06/29 06:19:25;;;;;;;6.80;2.90;;;;;;;24.32;56.51;100199.96;105389;1273;73521;-77
2022/06/29 06:22:14;;;;;;;6.80;1.90;;;;;;;25.60;53.36;100202.70;105080;1273;59630;-79
2022/06/29 06:25:01;;;;;;;6.30;1.80;;;;;;;26.42;50.48;100191.26;105099;1274;60903;-79
2022/06/29 06:27:49;;;;;;;5.60;1.90;;;;;;;28.17;46.41;100183.42;105090;1274;73269;-78
2022/06/29 06:30:38;;;;;;;5.70;1.90;;;;;;;29.16;43.56;100179.61;104929;1274;70156;-75
2022/06/29 06:33:25;;;;;;;6.10;2.20;;;;;;;29.08;43.14;100181.02;106561;1273;71581;-75
2022/06/29 06:36:13;;;;;;;5.70;2.00;;;;;;;28.59;43.43;100185.42;107088;1273;59067;-75
2022/06/29 06:39:01;;;;;;;7.00;2.40;;;;;;;27.86;44.75;100182.23;106484;1273;59658;-74
2022/06/29 06:41:49;;;;;;;5.80;1.90;;;;;;;28.98;42.86;100174.74;105845;1274;73440;-77
2022/06/29 06:44:55;;;;;;;6.00;2.10;;;;;;;30.19;39.61;100176.57;104929;1274;66868;-78
2022/06/29 06:47:42;;;;;;;5.40;1.50;;;;;;;31.52;36.88;100169.90;104869;1274;72123;-77
2022/06/29 06:50:30;;;;;;;5.20;1.70;;;;;;;32.25;34.93;100165.84;104976;1274;60074;-76
2022/06/29 06:53:18;;;;;;;6.40;1.70;;;;;;;31.59;36.16;100169.89;104899;1274;60250;-78
2022/06/29 06:56:09;;;;;;;5.70;1.70;;;;;;;30.64;37.25;100173.80;105085;1275;73262;-78
2022/06/29 06:58:57;;;;;;;5.00;1.60;;;;;;;29.59;39.00;100179.13;105121;1274;68104;-77
2022/06/29 07:01:44;;;;;;;6.40;2.00;;;;;;;28.53;40.66;100175.67;105043;1273;73411;-71
2022/06/29 07:04:41;;;;;;;6.40;2.30;;;;;;;27.62;42.29;100173.27;104827;1274;59701;-76
2022/06/29 07:07:29;;;;;;;6.10;2.00;;;;;;;26.80;44.20;100177.27;105072;1273;60558;-75
2022/06/29 07:10:17;;;;;;;6.10;2.20;;;;;;;26.30;45.93;100171.65;104870;1273;73801;-75
2022/06/29 07:13:05;;;;;;;6.90;2.00;;;;;;;26.10;46.93;100176.69;105008;1273;69372;-75
2022/06/29 07:15:54;;;;;;;6.20;2.00;;;;;;;26.58;46.52;100172.65;105331;1274;72959;-72
2022/06/29 07:18:41;;;;;;;5.90;2.00;;;;;;;27.54;44.62;100168.89;105047;1274;59771;-72
2022/06/29 07:21:29;;;;;;;6.90;2.40;;;;;;;27.66;44.19;100169.00;105016;1274;59569;-74
2022/06/29 07:24:17;;;;;;;6.40;1.80;;;;;;;27.54;44.09;100167.50;105008;1274;73037;-70
2022/06/29 07:27:05;;;;;;;6.50;2.20;;;;;;;27.26;44.46;100165.35;104853;1274;67845;-74
2022/06/29 07:29:53;;;;;;;6.80;2.50;;;;;;;26.89;45.15;100168.92;105157;1274;73322;-72
2022/06/29 07:32:40;;;;;;;6.40;2.40;;;;;;;26.65;45.66;100171.21;105061;1274;60128;-71
2022/06/29 07:35:29;;;;;;;7.00;3.10;;;;;;;27.21;44.65;100167.48;104905;1273;60265;-72
2022/06/29 07:38:19;;;;;;;8.40;2.30;;;;;;;26.95;44.90;100165.77;104808;1272;73369;-74
2022/06/29 07:41:06;;;;;;;6.30;2.00;;;;;;;26.88;45.24;100164.61;104875;1274;66730;-68
2022/06/29 07:43:55;;;;;;;6.40;2.10;;;;;;;27.38;43.89;100171.66;104793;1274;74146;-68
2022/06/29 07:46:42;;;;;;;6.20;2.10;;;;;;;28.20;42.21;100166.41;105064;1271;59565;-78
2022/06/29 07:49:31;;;;;;;5.50;1.80;;;;;;;29.64;39.93;100163.01;105231;1274;60440;-76
2022/06/29 07:52:19;;;;;;;7.30;2.40;;;;;;;29.81;39.60;100158.86;105121;1274;71896;-73
2022/06/29 07:55:08;;;;;;;6.30;2.20;;;;;;;29.24;40.32;100159.30;105013;1274;66612;-72
2022/06/29 07:57:56;;;;;;;7.80;2.90;;;;;;;28.75;41.15;100158.57;105053;1274;73562;-76
2022/06/29 08:00:44;;;;;;;6.50;2.60;;;;;;;28.29;42.11;100150.09;104898;1274;59762;-73
2022/06/29 08:03:32;;;;;;;7.00;2.60;;;;;;;27.83;42.72;100155.30;104809;1274;60108;-69
2022/06/29 08:06:22;;;;;;;8.20;3.40;;;;;;;27.34;43.64;100152.09;104965;1273;73294;-74
2022/06/29 08:09:10;;;;;;;6.10;2.70;;;;;;;26.97;44.23;100155.63;105564;1274;67784;-73
2022/06/29 08:12:08;;;;;;;6.10;2.30;;;;;;;26.72;44.57;100153.65;104861;1274;73759;-72
2022/06/29 08:14:55;;;;;;;6.60;2.20;;;;;;;26.47;44.51;100152.89;105002;1274;59750;-70
2022/06/29 08:17:44;;;;;;;7.40;2.30;;;;;;;26.31;45.22;100156.04;105084;1274;59657;-72
2022/06/29 08:20:32;;;;;;;7.00;2.60;;;;;;;26.22;45.81;100151.86;105173;1274;71970;-72
2022/06/29 08:23:20;;;;;;;6.40;2.40;;;;;;;26.25;46.61;100158.05;104822;1274;68605;-71
2022/06/29 08:26:08;;;;;;;7.40;2.70;;;;;;;26.34;46.72;100158.14;105076;1274;72928;-73
2022/06/29 08:29:15;;;;;;;6.90;2.50;;;;;;;27.06;45.97;100152.07;104892;1274;59624;-74
2022/06/29 08:32:04;;;;;;;7.40;2.60;;;;;;;27.00;45.90;100146.48;105034;1274;61430;-74
2022/06/29 08:34:52;;;;;;;7.50;2.80;;;;;;;26.76;46.11;100151.02;105190;1274;73309;-73
2022/06/29 08:37:41;;;;;;;6.30;2.60;;;;;;;26.40;47.02;100151.72;104885;1274;69577;-77
2022/06/29 08:40:44;;;;;;;6.30;2.60;;;;;;;26.04;47.50;100156.73;104794;1274;73486;-73
2022/06/29 08:43:32;;;;;;;6.10;2.40;;;;;;;25.61;47.77;100154.27;104726;1274;59641;-69
2022/06/29 08:46:20;;;;;;;6.30;2.40;;;;;;;25.18;48.92;100153.38;105023;1274;59544;-66
2022/06/29 08:49:09;;;;;;;6.70;2.90;;;;;;;24.83;49.88;100156.49;104853;1274;71961;-68
2022/06/29 08:52:04;;;;;;;6.90;2.60;;;;;;;24.56;50.40;100147.23;104781;1272;68399;-68
2022/06/29 08:54:54;;;;;;;6.80;2.70;;;;;;;24.23;51.76;100148.42;104944;1274;73320;-78
2022/06/29 08:57:42;;;;;;;8.00;2.40;;;;;;;24.04;52.68;100149.69;104989;1275;59692;-70
2022/06/29 09:00:30;;;;;;;7.20;2.50;;;;;;;23.97;52.57;100154.85;104871;1274;59676;-70
2022/06/29 09:03:21;;;;;;;10.70;6.60;;;;;;;23.93;52.32;100154.64;104923;1274;73618;-74
2022/06/29 09:06:10;;;;;;;8.80;3.20;;;;;;;24.03;52.22;100155.15;104837;1274;68459;-72
2022/06/29 09:08:58;;;;;;;6.90;3.30;;;;;;;24.18;52.03;100153.97;104780;1274;73439;-71
2022/06/29 09:11:52;;;;;;;8.90;2.60;;;;;;;24.39;51.17;100159.23;105012;1274;59727;-76
2022/06/29 09:14:40;;;;;;;6.60;2.70;;;;;;;24.80;50.17;100159.26;104831;1274;59850;-78
2022/06/29 09:17:35;;;;;;;6.30;2.60;;;;;;;25.13;49.15;100154.60;105234;1274;73786;-79
2022/06/29 09:20:24;;;;;;;6.10;2.30;;;;;;;25.67;48.65;100158.22;104726;1275;68047;-76
2022/06/29 09:23:20;;;;;;;6.40;2.50;;;;;;;26.49;47.07;100150.47;104838;1275;73069;-70
2022/06/29 09:26:08;;;;;;;6.40;2.70;;;;;;;26.98;45.48;100156.23;104825;1274;59681;-72
2022/06/29 09:28:57;;;;;;;8.00;2.30;;;;;;;27.11;44.03;100156.14;104981;1274;60628;-77
2022/06/29 09:32:06;;;;;;;6.60;2.20;;;;;;;26.95;43.30;100160.51;104644;1275;74514;-76
2022/06/29 09:34:54;;;;;;;7.60;2.30;;;;;;;26.65;43.90;100157.33;105693;1274;68191;-80
2022/06/29 09:37:42;;;;;;;7.60;2.10;;;;;;;26.47;44.09;100158.64;105448;1274;74567;-74
2022/06/29 09:40:30;;;;;;;6.70;2.20;;;;;;;26.16;43.69;100158.56;105100;1274;59770;-72
2022/06/29 09:43:18;;;;;;;9.30;2.40;;;;;;;25.76;44.26;100157.67;104951;1274;59545;-75
2022/06/29 09:46:09;;;;;;;9.70;2.30;;;;;;;25.59;45.19;100155.61;104876;1274;73972;-72
2022/06/29 09:48:57;;;;;;;11.50;2.90;;;;;;;25.58;47.99;100160.18;105233;1274;69674;-73
2022/06/29 09:51:48;;;;;;;8.10;2.50;;;;;;;25.41;50.56;100154.30;104794;1274;72369;-67
2022/06/29 09:54:45;;;;;;;7.20;2.30;;;;;;;25.27;51.97;100160.05;104963;1274;59672;-71
2022/06/29 09:57:35;;;;;;;7.90;2.50;;;;;;;25.27;52.63;100161.86;104782;1274;61308;-73
2022/06/29 10:03:33;;;;;;;7.50;2.20;;;;;;;25.72;52.50;100161.09;104815;1274;67025;-73
2022/06/29 10:06:22;;;;;;;8.70;2.30;;;;;;;25.72;52.25;100157.31;105510;1274;71625;-73
2022/06/29 10:09:09;;;;;;;9.40;2.40;;;;;;;25.64;52.37;100164.56;105814;1274;59747;-76
2022/06/29 10:15:56;;;;;;;8.60;2.70;;;;;;;25.43;53.34;100167.66;105153;1274;74328;-75
2022/06/29 10:19:31;;;;;;;7.20;2.70;;;;;;;25.27;53.93;100176.95;104958;1274;67666;-71
2022/06/29 10:22:18;;;;;;;8.40;2.50;;;;;;;24.90;54.76;100175.00;104779;1274;73316;-79
2022/06/29 10:25:10;;;;;;;8.20;2.50;;;;;;;24.73;55.44;100175.84;104932;1274;59724;-79
2022/06/29 10:28:20;;;;;;;10.20;2.40;;;;;;;24.61;56.45;100179.34;104783;1274;61780;-78
2022/06/29 10:31:08;;;;;;;6.20;2.10;;;;;;;24.39;57.32;100182.91;105324;1274;72384;-70
2022/06/29 10:33:56;;;;;;;7.80;2.40;;;;;;;24.51;57.47;100186.77;104876;1274;68389;-74
2022/06/29 10:37:11;;;;;;;6.80;2.30;;;;;;;25.49;55.69;100192.69;105052;1274;73228;-64
2022/06/29 10:40:04;;;;;;;7.50;2.30;;;;;;;25.56;54.74;100194.27;105026;1274;59662;-72
2022/06/29 10:43:10;;;;;;;10.70;5.10;;;;;;;25.47;54.96;100188.30;105215;1274;59673;-74
2022/06/29 10:45:58;;;;;;;7.80;2.60;;;;;;;25.64;54.46;100186.18;105004;1274;73961;-76
2022/06/29 10:49:22;;;;;;;8.10;2.30;;;;;;;26.30;53.50;100177.99;105084;1274;67817;-74
2022/06/29 10:52:12;;;;;;;11.90;2.30;;;;;;;28.02;49.56;100175.82;105069;1274;73276;-76
2022/06/29 10:55:03;;;;;;;9.00;2.70;;;;;;;29.96;44.56;100176.84;104979;1274;59746;-74
2022/06/29 10:57:52;;;;;;;7.90;2.20;;;;;;;31.58;41.03;100162.84;105351;1274;62252;-74
2022/06/29 11:00:44;;;;;;;7.20;2.00;;;;;;;31.59;39.64;100167.73;105462;1274;74354;-73
2022/06/29 11:03:32;;;;;;;7.00;2.00;;;;;;;31.12;40.01;100169.64;105150;1274;69659;-72
2022/06/29 11:12:55;;;;;;;6.80;1.90;;;;;;;30.47;41.37;100178.91;105033;1274;60235;-72
2022/06/29 11:15:49;;;;;;;9.20;4.10;;;;;;;29.95;41.89;100179.36;105107;1274;74238;-68
2022/06/29 11:18:37;;;;;;;10.50;5.30;;;;;;;29.74;42.39;100174.23;104933;1273;69002;-68
2022/06/29 11:21:28;;;;;;;13.40;8.20;;;;;;;29.41;43.07;100166.86;105222;1274;73545;-83
2022/06/29 11:24:16;;;;;;;10.30;3.60;;;;;;;29.31;43.19;100164.95;104830;1274;59694;-76
2022/06/29 11:27:04;;;;;;;10.10;3.20;;;;;;;28.91;43.95;100161.78;104896;1274;59916;-72
2022/06/29 11:29:52;;;;;;;8.90;2.90;;;;;;;28.34;44.70;100165.23;105222;1274;74754;-70
2022/06/29 11:32:43;;;;;;;10.90;2.90;;;;;;;27.83;46.57;100159.77;104878;1274;68384;-74
2022/06/29 11:35:31;;;;;;;9.90;3.10;;;;;;;27.59;47.46;100158.62;105103;1274;73178;-77
2022/06/29 11:38:19;;;;;;;7.50;3.10;;;;;;;27.52;48.00;100157.18;104929;1274;59659;-78
2022/06/29 11:43:03;;;;;;;7.60;2.90;;;;;;;27.49;48.27;100153.60;105702;1274;59556;-76
2022/06/29 11:44:32;;;;;;;7.30;2.40;;;;;;;27.33;48.53;100145.49;105447;1274;73674;-76
2022/06/29 11:47:27;;;;;;;8.10;2.70;;;;;;;26.99;48.92;100142.54;105055;1273;68546;-76
2022/06/29 11:50:17;;;;;;;9.30;3.00;;;;;;;26.49;50.14;100141.17;105452;1273;72564;-75
2022/06/29 11:53:05;;;;;;;9.50;3.00;;;;;;;26.19;51.20;100142.35;105036;1273;59672;-77
2022/06/29 11:55:57;;;;;;;7.70;3.10;;;;;;;26.06;51.78;100147.42;105176;1274;60769;-75
2022/06/29 11:58:49;;;;;;;8.80;3.30;;;;;;;26.29;51.53;100137.30;105279;1274;73766;-72
2022/06/29 12:01:38;;;;;;;9.90;3.20;;;;;;;26.31;51.47;100130.55;105277;1274;69985;-77
2022/06/29 12:04:30;;;;;;;11.20;3.10;;;;;;;26.09;51.71;100134.65;105008;1273;74514;-77
2022/06/29 12:07:20;;;;;;;8.20;2.80;;;;;;;25.91;52.41;100134.61;105301;1274;59687;-78
2022/06/29 12:10:08;;;;;;;9.80;3.30;;;;;;;25.65;52.94;100134.76;105048;1274;60542;-75
2022/06/29 12:12:59;;;;;;;8.50;2.90;;;;;;;25.30;53.69;100135.04;105403;1274;73451;-76
2022/06/29 12:15:48;;;;;;;7.90;3.20;;;;;;;24.99;55.09;100124.77;105304;1274;67816;-74
2022/06/29 12:18:36;;;;;;;11.30;3.30;;;;;;;24.83;55.73;100118.60;105055;1274;73029;-76
2022/06/29 12:21:26;;;;;;;8.20;3.30;;;;;;;24.76;56.16;100113.92;104960;1274;59634;-73
2022/06/29 12:24:15;;;;;;;8.70;3.10;;;;;;;24.75;56.47;100109.87;105250;1274;60259;-75
2022/06/29 12:27:04;;;;;;;10.80;3.30;;;;;;;24.68;56.48;100108.27;105167;1274;73667;-76
2022/06/29 12:29:52;;;;;;;12.50;3.30;;;;;;;24.57;56.94;100107.81;105048;1273;69565;-77
2022/06/29 12:32:39;;;;;;;9.80;3.50;;;;;;;24.42;57.30;100111.23;105147;1273;72661;-77
2022/06/29 12:35:28;;;;;;;8.50;3.60;;;;;;;24.34;58.00;100108.86;105360;1274;59652;-77
2022/06/29 12:38:16;;;;;;;10.30;3.60;;;;;;;24.24;57.79;100109.69;105263;1272;61456;-76
2022/06/29 12:41:04;;;;;;;11.10;3.30;;;;;;;24.10;58.00;100113.69;105176;1274;74557;-77
2022/06/29 12:43:52;;;;;;;9.30;3.70;;;;;;;24.04;58.14;100113.59;105067;1274;67768;-76
2022/06/29 12:46:40;;;;;;;9.90;3.50;;;;;;;24.03;58.31;100118.89;105431;1274;73432;-78
2022/06/29 12:49:28;;;;;;;8.10;3.70;;;;;;;24.06;58.23;100119.20;104983;1274;59769;-75
2022/06/29 12:52:17;;;;;;;10.40;3.80;;;;;;;24.16;58.28;100118.46;105146;1273;61363;-77
2022/06/29 12:55:09;;;;;;;10.80;3.60;;;;;;;24.32;57.95;100114.84;105385;1274;73239;-77
2022/06/29 12:57:56;;;;;;;10.40;3.60;;;;;;;24.39;57.17;100115.73;105236;1272;66690;-77
2022/06/29 13:00:44;;;;;;;7.50;3.30;;;;;;;24.43;57.42;100118.02;105307;1273;72634;-78
2022/06/29 13:03:36;;;;;;;9.30;3.70;;;;;;;24.49;57.00;100117.69;105062;1273;59637;-76
2022/06/29 13:06:23;;;;;;;10.40;3.50;;;;;;;24.66;56.71;100119.45;105143;1274;60501;-77
2022/06/29 13:09:11;;;;;;;9.20;3.30;;;;;;;24.80;56.51;100113.51;105116;1274;71958;-76
2022/06/29 13:11:59;;;;;;;10.30;3.20;;;;;;;24.96;55.98;100108.40;104792;1274;66863;-78
2022/06/29 13:14:46;;;;;;;8.30;3.30;;;;;;;25.09;55.39;100108.23;104922;1273;73125;-76